• Join FlightAware (Why Join?)
  • Login
  • US Flag 
10:57PM EDT


 

Airport Tracker/Info


-or-


 

Live Flight TrackerFlight Track Log ✈ AFL150 ✈ 05-Aug-2013 ✈ UUEE / SVO - MUHA / HAV

Flight Track Log - Related Links

Times and Time Zones

All times are in EDT time to prevent confusion due to time zone crossing. See the AFL150 flight status page for this flight to view local times or setup timezone preferences in your user account.

Time Position Orientation Groundspeed Altitude Reporting Facility
EDT Latitude Longitude Course Direction KTS MPH feet Rate Location/Type
06:22AM 55.9770 37.4540 76° East 1,300  Level FlightAware
06:22AM 55.9820 37.4920 77° East 171 197 2,500 1,920 Climbing FlightAware
06:23AM 55.9880 37.5290 74° East 195 224 2,900 1,020 Climbing FlightAware
06:23AM 55.9930 37.5620 75° East 217 250 3,300 1,860 Climbing FlightAware
06:24AM 56.0120 37.6890 75° East 248 285 5,600 2,100 Climbing FlightAware
06:24AM 56.0180 37.7180 70° East 256 295 6,100 2,100 Climbing FlightAware
06:24AM 56.0220 37.7260 48° Northeast 259 298 6,300 2,400 Climbing FlightAware
06:24AM 56.0260 37.7340 48° Northeast 261 300 6,500 2,400 Climbing FlightAware
06:25AM 56.0370 37.7430 25° Northeast 268 308 6,900 2,400 Climbing FlightAware
06:25AM 56.0490 37.7470 11° North 275 316 7,300 2,220 Climbing FlightAware
06:25AM 56.0790 37.7250 338° Northwest 292 336 8,200 2,400 Climbing FlightAware
06:25AM 56.0840 37.7160 315° West 295 339 8,500 2,400 Climbing FlightAware
06:25AM 56.0900 37.6960 298° West 300 345 8,800 1,980 Climbing FlightAware
06:26AM 56.0930 37.6830 292° West 304 350 9,000 1,560 Climbing FlightAware
06:26AM 56.0940 37.6580 274° West 309 356 9,200 1,200 Climbing FlightAware
06:26AM 56.0900 37.6200 259° West 309 356 9,500 960 Climbing FlightAware
06:26AM 56.0880 37.5960 262° West 308 354 9,600 960 Climbing FlightAware
06:26AM 56.0960 37.5470 286° West 304 350 10,000 960 Climbing FlightAware
06:27AM 56.1250 37.4760 306° West 309 356 10,500 1,500 Climbing FlightAware
06:28AM 56.1560 37.4050 308° West 315 362 11,800 1,200 Climbing FlightAware
06:28AM 56.1920 37.3220 308° West 317 365 12,000 480 Climbing FlightAware
06:29AM 56.2140 37.2860 318° Northwest 313 360 12,300 1,440 Climbing FlightAware
06:29AM 56.2490 37.2380 323° Northwest 322 371 13,200 2,100 Climbing FlightAware
06:30AM 56.2900 37.1820 323° Northwest 323 372 14,600 2,220 Climbing FlightAware
06:30AM 56.3370 37.1160 322° Northwest 330 380 16,000 1,680 Climbing FlightAware
06:31AM 56.3870 37.0420 321° Northwest 352 405 16,900 1,440 Climbing FlightAware
06:32AM 56.4300 36.9760 320° Northwest 365 420 17,800 1,440 Climbing FlightAware
06:32AM 56.4770 36.9060 321° Northwest 380 437 18,600 1,500 Climbing FlightAware
06:33AM 56.5230 36.8370 320° Northwest 388 447 19,600 1,080 Climbing FlightAware
06:33AM 56.5830 36.7480 321° Northwest 417 480 20,000 960 Climbing FlightAware
06:34AM 56.6430 36.6570 320° Northwest 432 497 20,900 1,500 Climbing FlightAware
06:35AM 56.6890 36.5870 320° Northwest 433 498 21,800 1,620 Climbing FlightAware
06:35AM 56.7430 36.5040 320° Northwest 440 506 22,700 1,500 Climbing FlightAware
06:36AM 56.7990 36.4200 321° Northwest 445 512 23,600 1,500 Climbing FlightAware
06:36AM 56.8620 36.3230 320° Northwest 447 514 24,600 1,440 Climbing FlightAware
06:37AM 56.9090 36.2510 320° Northwest 450 518 25,300 1,260 Climbing FlightAware
06:38AM 56.9650 36.1630 319° Northwest 457 526 26,000 1,080 Climbing FlightAware
06:38AM 57.0220 36.0760 320° Northwest 463 533 26,600 1,020 Climbing FlightAware
06:39AM 57.0860 35.9750 319° Northwest 469 540 27,300 1,020 Climbing FlightAware
06:39AM 57.1370 35.8950 320° Northwest 473 544 27,800 960 Climbing FlightAware
06:40AM 57.1930 35.8080 320° Northwest 476 548 28,400 1,020 Climbing FlightAware
06:40AM 57.2540 35.7110 319° Northwest 479 551 29,000 1,080 Climbing FlightAware
06:41AM 57.3210 35.6050 320° Northwest 480 552 29,800 1,080 Climbing FlightAware
06:42AM 57.3780 35.5130 319° Northwest 480 552 30,400 900 Climbing FlightAware
06:42AM 57.4310 35.4300 320° Northwest 482 555 30,800 900 Climbing FlightAware
06:43AM 57.4890 35.3370 319° Northwest 483 556 31,400 1,200 Climbing FlightAware
06:43AM 57.5550 35.2290 319° Northwest 478 550 32,300 1,260 Climbing FlightAware
06:44AM 57.6060 35.1470 319° Northwest 473 544 32,900 1,260 Climbing FlightAware
06:45AM 57.6630 35.0540 319° Northwest 467 537 33,700 840 Climbing FlightAware
06:45AM 57.7280 34.9500 320° Northwest 466 536 34,000 240 Climbing FlightAware
06:46AM 57.7800 34.8770 323° Northwest 464 534 34,000  Level FlightAware
06:46AM 57.8400 34.7960 324° Northwest 459 528 34,000  Level FlightAware
06:47AM 57.9090 34.7020 324° Northwest 455 524 34,000  Level FlightAware
06:48AM 57.9680 34.6200 324° Northwest 454 522 34,000  Level FlightAware
06:48AM 58.0180 34.5500 323° Northwest 454 522 34,000  Level FlightAware
06:49AM 58.0770 34.4680 324° Northwest 453 521 34,000  Level FlightAware
06:49AM 58.1440 34.3740 323° Northwest 453 521 34,000  Level FlightAware
06:50AM 58.1930 34.3020 322° Northwest 451 519 34,000  Level FlightAware
06:50AM 58.2460 34.2200 321° Northwest 450 518 34,000  Level FlightAware
06:51AM 58.3030 34.1310 321° Northwest 448 516 34,000  Level FlightAware
06:52AM 58.3710 34.0280 322° Northwest 447 514 34,000  Level FlightAware
06:52AM 58.4260 33.9420 321° Northwest 447 514 34,000  Level FlightAware
06:53AM 58.4890 33.8460 321° Northwest 447 514 34,000  Level FlightAware
06:54AM 58.5380 33.7690 321° Northwest 447 514 34,000  Level FlightAware
06:54AM 58.5870 33.6930 321° Northwest 447 514 34,000  Level FlightAware
06:55AM 58.6810 33.5470 321° Northwest 440 506 34,000  Level FlightAware
06:56AM 58.7330 33.4640 320° Northwest 440 506 34,000  Level FlightAware
06:56AM 58.7800 33.3870 320° Northwest 440 506 34,000  Level FlightAware
06:57AM 58.8280 33.3090 320° Northwest 440 506 34,000  Level FlightAware
06:57AM 58.8760 33.2320 320° Northwest 440 506 34,000  Level FlightAware
06:58AM 58.9230 33.1540 319° Northwest 440 506 34,000  Level FlightAware
06:59AM 58.9880 33.0490 320° Northwest 440 506 34,000  Level FlightAware
06:59AM 59.0360 32.9710 320° Northwest 440 506 34,000  Level FlightAware
07:00AM 59.1100 32.7040 298° West 438 504 34,000  Level FlightAware
07:00AM 59.1280 32.5880 287° West 439 505 34,000  Level FlightAware
07:01AM 59.1570 32.3830 286° West 440 506 34,000  Level FlightAware
07:02AM 59.1840 32.1870 285° West 442 509 34,000  Level FlightAware
07:03AM 59.2040 32.0440 285° West 442 509 34,000  Level FlightAware
07:03AM 59.2230 31.9000 285° West 443 510 34,000  Level FlightAware
07:04AM 59.2370 31.8010 285° West 444 511 34,000  Level FlightAware
07:05AM 59.2620 31.6160 285° West 444 511 34,000  Level FlightAware
07:05AM 59.2810 31.4760 285° West 445 512 34,000  Level FlightAware
07:06AM 59.2990 31.3410 285° West 445 512 34,000  Level FlightAware
07:07AM 59.3200 31.1840 285° West 446 513 34,000  Level FlightAware
07:07AM 59.3380 31.0520 285° West 447 514 34,000  Level FlightAware
07:08AM 59.3550 30.9140 284° West 447 514 34,000  Level FlightAware
07:08AM 59.3740 30.7730 285° West 446 513 34,000  Level FlightAware
07:09AM 59.3910 30.6390 284° West 447 514 34,000  Level FlightAware
07:09AM 59.4080 30.4990 283° West 449 517 34,000  Level FlightAware
07:10AM 59.4280 30.3410 284° West 451 519 34,000  Level FlightAware
07:11AM 59.4480 30.1840 284° West 453 521 34,000  Level FlightAware
07:11AM 59.4620 30.0630 283° West 454 522 34,000  Level FlightAware
07:12AM 59.4840 29.8850 284° West 456 525 34,000  Level FlightAware
07:13AM 59.5010 29.7400 283° West 457 526 34,000  Level FlightAware
07:13AM 59.5160 29.6200 284° West 458 527 34,000  Level FlightAware
07:14AM 59.5340 29.4620 283° West 458 527 34,000  Level FlightAware
07:14AM 59.5510 29.3160 283° West 458 527 34,000  Level FlightAware
07:15AM 59.5680 29.1760 284° West 458 527 34,000  Level FlightAware
07:16AM 59.5790 29.0740 282° West 459 528 34,000  Level FlightAware
07:16AM 59.6010 28.8820 283° West 458 527 34,000  Level FlightAware
07:17AM 59.6160 28.7510 283° West 459 528 34,000  Level FlightAware
07:17AM 59.6380 28.6000 286° West 460 529 34,000  Level FlightAware
07:18AM 59.6580 28.4640 286° West 459 528 34,000  Level FlightAware
07:18AM 59.6780 28.3280 286° West 459 528 34,000  Level FlightAware
07:19AM 59.6990 28.1810 286° West 460 529 34,000  Level FlightAware
07:19AM 59.7130 28.0860 286° West 461 531 34,000  Level FlightAware
07:20AM 59.7400 27.8930 286° West 462 532 34,000  Level FlightAware
07:21AM 59.7720 27.6620 285° West 465 535 34,000  Level FlightAware
07:22AM 59.7900 27.5320 285° West 465 535 34,000  Level FlightAware
07:22AM 59.8080 27.3940 285° West 464 534 34,000  Level FlightAware
07:23AM 59.8260 27.2620 285° West 463 533 34,000  Level FlightAware
07:24AM 59.8660 26.9620 285° West 461 531 34,000  Level FlightAware
07:25AM 59.8860 26.8120 285° West 460 529 34,000  Level FlightAware
07:25AM 59.9040 26.6760 285° West 459 528 34,000  Level FlightAware
07:26AM 59.9210 26.5440 284° West 459 528 34,000  Level FlightAware
07:26AM 59.9430 26.3960 287° West 462 532 34,000  Level FlightAware
07:27AM 59.9810 26.2230 294° West 469 540 34,000  Level FlightAware
07:28AM 60.0220 26.0890 302° West 474 545 34,000  Level FlightAware
07:28AM 60.0620 25.9760 305° West 473 544 34,000 120 Level FlightAware
07:28AM 60.0780 25.9150 298° West 468 539 34,100 540 Climbing FlightAware
07:29AM 60.1020 25.8050 294° West 469 540 34,400 660 Climbing FlightAware
07:30AM 60.1390 25.6470 295° West 472 543 34,900 660 Climbing FlightAware
07:30AM 60.1730 25.5040 296° West 472 543 35,300 660 Climbing FlightAware
07:31AM 60.2040 25.3690 295° West 473 544 35,700 540 Climbing FlightAware
07:31AM 60.2390 25.2180 295° West 470 541 36,000 240 Climbing FlightAware
07:32AM 60.2680 25.0920 295° West 470 541 36,000  Level FlightAware
07:32AM 60.3010 24.9500 295° West 470 541 36,000  Level FlightAware
07:33AM 60.3340 24.8030 294° West 470 541 36,000  Level FlightAware
07:34AM 60.3670 24.6600 295° West 470 541 36,000  Level FlightAware
07:34AM 60.3940 24.5370 294° West 470 541 36,000  Level FlightAware
07:35AM 60.4230 24.4070 294° West 471 542 36,000  Level FlightAware
07:35AM 60.4620 24.2360 295° West 473 544 36,000  Level FlightAware
07:36AM 60.4940 24.1110 298° West 475 547 36,000  Level FlightAware
07:37AM 60.5280 23.9840 299° West 474 545 36,000  Level FlightAware
07:37AM 60.5650 23.8470 299° West 472 543 36,000  Level FlightAware
07:38AM 60.6000 23.7130 298° West 472 543 36,000  Level FlightAware
07:38AM 60.6370 23.5720 298° West 471 542 36,000  Level FlightAware
07:39AM 60.6750 23.4260 298° West 470 541 36,000  Level FlightAware
07:39AM 60.7080 23.2970 298° West 469 540 36,000  Level FlightAware
07:41AM 60.7960 22.9510 298° West 468 539 36,000  Level FlightAware
07:42AM 60.8370 22.7860 297° West 468 539 36,000  Level FlightAware
07:42AM 60.8750 22.6350 297° West 471 542 36,000  Level FlightAware
07:42AM 60.8810 22.6100 296° West 471 542 36,000  Level FlightAware
07:43AM 60.9260 22.4270 297° West 470 541 36,000  Level FlightAware
07:44AM 60.9680 22.2670 298° West 471 542 36,000  Level FlightAware
07:45AM 61.0200 22.1010 303° West 473 544 36,000  Level FlightAware
07:45AM 61.0620 21.9640 302° West 471 542 36,000  Level FlightAware
07:46AM 61.0950 21.8580 303° West 465 535 36,000  Level FlightAware
07:46AM 61.1290 21.7460 302° West 464 534 36,000  Level FlightAware
07:47AM 61.1800 21.5740 302° West 464 534 36,000  Level FlightAware
07:47AM 61.2190 21.4440 302° West 462 532 36,000  Level FlightAware
07:48AM 61.2580 21.3140 302° West 462 532 36,000  Level FlightAware
07:49AM 61.2980 21.1770 301° West 463 533 36,000  Level FlightAware
07:49AM 61.3330 21.0580 302° West 463 533 36,000  Level FlightAware
07:50AM 61.3770 20.9060 301° West 462 532 36,000  Level FlightAware
07:50AM 61.4110 20.7900 302° West 462 532 36,000  Level FlightAware
07:51AM 61.4500 20.6540 301° West 462 532 36,000  Level FlightAware
07:52AM 61.4920 20.5080 301° West 462 532 36,000  Level FlightAware
07:52AM 61.5240 20.3940 301° West 462 532 36,000  Level FlightAware
07:53AM 61.5630 20.2580 301° West 464 534 36,000  Level FlightAware
07:53AM 61.6010 20.1210 300° West 465 535 36,000  Level FlightAware
07:54AM 61.6440 19.9670 301° West 466 536 36,000  Level FlightAware
07:54AM 61.6770 19.8510 301° West 466 536 36,000  Level FlightAware
07:55AM 61.7150 19.7130 300° West 466 536 36,000  Level FlightAware
07:56AM 61.7550 19.5660 300° West 465 535 36,000  Level FlightAware
07:56AM 61.8030 19.4320 307° West 469 540 36,000  Level FlightAware
07:57AM 61.8540 19.3280 316° Northwest 467 537 36,000  Level FlightAware
07:57AM 61.9080 19.2130 315° West 465 535 36,000  Level FlightAware
07:58AM 61.9620 19.0990 315° West 465 535 36,000  Level FlightAware
07:59AM 62.0170 18.9830 315° West 465 535 36,000  Level FlightAware
07:59AM 62.0660 18.8800 315° West 465 535 36,000  Level FlightAware
07:59AM 62.0940 18.8190 314° West 465 535 36,000  Level FlightAware
08:01AM 62.2450 18.4940 315° West 465 535 36,000  Level FlightAware
08:03AM 62.3550 18.2530 315° West 466 536 36,000  Level FlightAware
08:03AM 62.4110 18.1290 314° West 466 536 36,000  Level FlightAware
08:04AM 62.4870 17.9630 315° West 466 536 36,000  Level FlightAware
08:04AM 62.5350 17.8540 314° West 467 537 36,000  Level FlightAware
08:05AM 62.5540 17.8120 314° West 467 537 36,000  Level FlightAware
08:06AM 62.6630 17.5650 314° West 469 540 36,000  Level FlightAware
08:06AM 62.7100 17.4600 314° West 468 539 36,000  Level FlightAware
08:07AM 62.7690 17.3240 314° West 469 540 36,000  Level FlightAware
08:07AM 62.8170 17.2150 314° West 468 539 36,000  Level FlightAware
08:08AM 62.8740 17.0830 313° West 469 540 36,000  Level FlightAware
08:09AM 62.9270 16.9580 313° West 469 540 36,000  Level FlightAware
08:09AM 62.9750 16.8460 313° West 470 541 36,000  Level FlightAware
08:10AM 63.0310 16.7150 313° West 471 542 36,000  Level FlightAware
08:10AM 63.0870 16.5840 313° West 472 543 36,000  Level FlightAware
08:11AM 63.1410 16.4540 313° West 474 545 36,000  Level FlightAware
08:12AM 63.1780 16.3670 313° West 473 544 36,000  Level FlightAware
08:12AM 63.2440 16.2070 313° West 472 543 36,000  Level FlightAware
08:13AM 63.3090 16.0490 313° West 471 542 36,000  Level FlightAware
08:14AM 63.3570 15.9340 313° West 470 541 36,000  Level FlightAware
08:14AM 63.4100 15.8040 312° West 472 543 36,000  Level FlightAware
08:15AM 63.4610 15.6780 312° West 471 542 36,000  Level FlightAware
08:15AM 63.5070 15.5640 312° West 471 542 36,000  Level FlightAware
08:16AM 63.5630 15.4240 312° West 472 543 36,000  Level FlightAware
08:16AM 63.6150 15.2930 312° West 472 543 36,000  Level FlightAware
08:17AM 63.6680 15.1600 312° West 473 544 36,000  Level FlightAware
08:18AM 63.7140 15.0430 312° West 473 544 36,000  Level FlightAware
08:18AM 63.7650 14.9140 312° West 474 545 36,000  Level FlightAware
08:19AM 63.8130 14.7910 312° West 473 544 36,000  Level FlightAware
08:19AM 63.8680 14.6490 311° West 473 544 36,000  Level FlightAware
08:21AM 63.9920 14.3240 311° West 472 543 36,000  Level FlightAware
08:22AM 64.0290 14.2270 311° West 473 544 36,000  Level FlightAware
08:22AM 64.1180 13.9920 311° West 470 541 36,000  Level FlightAware
08:23AM 64.1660 13.8620 310° West 465 535 36,000  Level FlightAware
08:23AM 64.1980 13.7760 311° West 464 534 36,000  Level FlightAware
08:24AM 64.2840 13.5440 311° West 464 534 36,000  Level FlightAware
08:25AM 64.3290 13.4220 310° West 464 534 36,000  Level FlightAware
08:25AM 64.3730 13.2990 310° West 465 535 36,000  Level FlightAware
08:26AM 64.4260 13.1530 310° West 465 535 36,000  Level FlightAware
08:27AM 64.4720 13.0260 310° West 465 535 36,000  Level FlightAware
08:27AM 64.5180 12.8960 309° West 465 535 36,000  Level FlightAware
08:28AM 64.5680 12.7560 310° West 464 534 36,000  Level FlightAware
08:28AM 64.6170 12.6180 310° West 464 534 36,000  Level FlightAware
08:29AM 64.6840 12.4270 309° West 465 535 36,000  Level FlightAware
08:30AM 64.7390 12.2680 309° West 465 535 36,000  Level FlightAware
08:30AM 64.7880 12.1270 309° West 466 536 36,000  Level FlightAware
08:31AM 64.8380 11.9790 309° West 465 535 36,000  Level FlightAware
08:32AM 64.8780 11.8630 309° West 463 533 36,000  Level FlightAware
08:32AM 64.9290 11.7130 309° West 461 531 36,000  Level FlightAware
08:33AM 64.9770 11.5700 308° West 461 531 36,000  Level FlightAware
08:33AM 65.0250 11.4270 309° West 463 533 36,000  Level FlightAware
08:34AM 65.0730 11.2830 308° West 463 533 36,000  Level FlightAware
08:35AM 65.1110 11.1680 308° West 463 533 36,000  Level FlightAware
08:35AM 65.1620 11.0130 308° West 464 534 36,000  Level FlightAware
08:36AM 65.2060 10.8770 308° West 465 535 36,000  Level FlightAware
08:36AM 65.2510 10.7390 308° West 464 534 36,000  Level FlightAware
08:37AM 65.2980 10.5930 308° West 462 532 36,000  Level FlightAware
08:37AM 65.3450 10.4470 308° West 460 529 36,000  Level FlightAware
08:38AM 65.3920 10.3000 308° West 460 529 36,000  Level FlightAware
08:39AM 65.4320 10.1710 307° West 459 528 36,000  Level FlightAware
08:39AM 65.4800 10.0180 307° West 458 527 36,000  Level FlightAware
08:39AM 65.4910 9.9840 308° West 458 527 36,000  Level FlightAware
08:39AM 65.4960 9.9690 309° West 459 528 36,000  Level FlightAware
08:41AM 65.6010 9.6310 307° West 465 535 36,000  Level FlightAware
08:42AM 65.6700 9.4050 307° West 467 537 36,000  Level FlightAware
08:42AM 65.7160 9.2540 307° West 467 537 36,000  Level FlightAware
08:43AM 65.7430 9.1630 306° West 467 537 36,000  Level FlightAware
08:44AM 65.8040 8.9590 306° West 467 537 36,000  Level FlightAware
08:44AM 65.8430 8.8280 306° West 467 537 36,000  Level FlightAware
08:45AM 65.8830 8.6940 306° West 467 537 36,000  Level FlightAware
08:46AM 65.9220 8.5630 306° West 467 537 36,000  Level FlightAware
08:46AM 65.9620 8.4280 306° West 467 537 36,000  Level FlightAware
08:47AM 66.0010 8.2960 306° West 467 537 36,000  Level FlightAware
08:47AM 66.0430 8.1540 306° West 467 537 36,000  Level FlightAware
08:48AM 66.0820 8.0220 306° West 467 537 36,000  Level FlightAware
08:49AM 66.1200 7.8900 305° West 467 537 36,000  Level FlightAware
08:49AM 66.1590 7.7570 306° West 467 537 36,000  Level FlightAware
08:50AM 66.1980 7.6250 306° West 467 537 36,000  Level FlightAware
08:50AM 66.2370 7.4920 306° West 467 537 36,000  Level FlightAware
08:51AM 66.2760 7.3590 306° West 467 537 36,000  Level FlightAware
08:52AM 66.3150 7.2260 306° West 467 537 36,000  Level FlightAware
08:52AM 66.3530 7.0930 306° West 467 537 36,000  Level FlightAware
08:53AM 66.3930 6.9560 306° West 467 537 36,000  Level FlightAware
08:56AM 66.4381 6.2235 279° West  Level Estimated
08:57AM 66.4544 5.9429 278° West  Level Estimated
08:58AM 66.4702 5.6619 278° West  Level Estimated
08:59AM 66.4855 5.3805 278° West  Level Estimated
09:00AM 66.5003 5.0988 278° West  Level Estimated
09:01AM 66.5146 4.8168 277° West  Level Estimated
09:02AM 66.5284 4.5345 277° West  Level Estimated
09:03AM 66.5416 4.2519 277° West  Level Estimated
09:04AM 66.5544 3.9689 277° West  Level Estimated
09:05AM 66.5666 3.6857 276° West  Level Estimated
09:06AM 66.5784 3.4022 276° West  Level Estimated
09:07AM 66.5896 3.1185 276° West  Level Estimated
09:08AM 66.6003 2.8345 276° West  Level Estimated
09:09AM 66.6105 2.5503 275° West  Level Estimated
09:10AM 66.6202 2.2658 275° West  Level Estimated
09:11AM 66.6294 1.9811 275° West  Level Estimated
09:12AM 66.6380 1.6962 275° West  Level Estimated
09:13AM 66.6462 1.4111 274° West  Level Estimated
09:14AM 66.6538 1.1258 274° West  Level Estimated
09:15AM 66.6609 0.8404 274° West  Level Estimated
09:16AM 66.6675 0.5548 273° West  Level Estimated
09:17AM 66.6736 0.2691 273° West  Level Estimated
09:18AM 66.6791 -0.0168 273° West  Level Estimated
09:19AM 66.6842 -0.3028 273° West  Level Estimated
09:20AM 66.6887 -0.5889 272° West  Level Estimated
09:21AM 66.6927 -0.8751 272° West  Level Estimated
09:22AM 66.6962 -1.1614 272° West  Level Estimated
09:23AM 66.6991 -1.4478 272° West  Level Estimated
09:24AM 66.7016 -1.7342 271° West  Level Estimated
09:25AM 66.7035 -2.0207 271° West  Level Estimated
09:26AM 66.7049 -2.3072 271° West  Level Estimated
09:27AM 66.7058 -2.5938 271° West  Level Estimated
09:28AM 66.7061 -2.8804 270° West  Level Estimated
09:29AM 66.7060 -3.1669 270° West  Level Estimated
09:30AM 66.7053 -3.4535 270° West  Level Estimated
09:31AM 66.7041 -3.7400 270° West  Level Estimated
09:32AM 66.7024 -4.0265 269° West  Level Estimated
09:33AM 66.7001 -4.3129 269° West  Level Estimated
09:34AM 66.6974 -4.5993 269° West  Level Estimated
09:35AM 66.6941 -4.8857 268° West  Level Estimated
09:36AM 66.6903 -5.1719 268° West  Level Estimated
09:37AM 66.6859 -5.4580 268° West  Level Estimated
09:38AM 66.6811 -5.7441 268° West  Level Estimated
09:39AM 66.6757 -6.0300 267° West  Level Estimated
09:40AM 66.6699 -6.3158 267° West  Level Estimated
09:41AM 66.6635 -6.6014 267° West  Level Estimated
09:42AM 66.6565 -6.8869 267° West  Level Estimated
09:43AM 66.6491 -7.1723 266° West  Level Estimated
09:44AM 66.6412 -7.4574 266° West  Level Estimated
09:45AM 66.6327 -7.7424 266° West  Level Estimated
09:46AM 66.6237 -8.0272 266° West  Level Estimated
09:47AM 66.6142 -8.3117 265° West  Level Estimated
09:48AM 66.6042 -8.5960 265° West  Level Estimated
09:49AM 66.5937 -8.8801 265° West  Level Estimated
09:50AM 66.5826 -9.1640 265° West  Level Estimated
09:51AM 66.5711 -9.4476 264° West  Level Estimated
09:52AM 66.5590 -9.7309 264° West  Level Estimated
09:53AM 66.5464 -10.0139 264° West  Level Estimated
09:54AM 66.5334 -10.2967 263° West  Level Estimated
09:55AM 66.5198 -10.5791 263° West  Level Estimated
09:56AM 66.5057 -10.8612 263° West  Level Estimated
09:57AM 66.4911 -11.1430 263° West  Level Estimated
09:58AM 66.4760 -11.4245 262° West  Level Estimated
09:59AM 66.4603 -11.7056 262° West  Level Estimated
10:00AM 66.4442 -11.9864 262° West  Level Estimated
10:01AM 66.4276 -12.2668 262° West  Level Estimated
10:02AM 66.4104 -12.5468 261° West  Level Estimated
10:03AM 66.3928 -12.8264 261° West  Level Estimated
10:04AM 66.3747 -13.1057 261° West  Level Estimated
10:05AM 66.3560 -13.3845 261° West  Level Estimated
10:06AM 66.3369 -13.6629 260° West  Level Estimated
10:07AM 66.3173 -13.9409 260° West  Level Estimated
10:08AM 66.2972 -14.2184 260° West  Level Estimated
10:09AM 66.2766 -14.4955 260° West  Level Estimated
10:10AM 66.2554 -14.7721 259° West  Level Estimated
10:11AM 66.2338 -15.0483 259° West  Level Estimated
10:12AM 66.2118 -15.3239 259° West  Level Estimated
10:13AM 66.1892 -15.5991 259° West  Level Estimated
10:14AM 66.1661 -15.8738 258° West  Level Estimated
10:15AM 66.1426 -16.1480 258° West  Level Estimated
10:16AM 66.1185 -16.4217 258° West  Level Estimated
10:17AM 66.0940 -16.6948 258° West  Level Estimated
10:18AM 66.0690 -16.9674 257° West  Level Estimated
10:19AM 66.0435 -17.2395 257° West  Level Estimated
10:20AM 66.0176 -17.5110 257° West  Level Estimated
10:21AM 65.9911 -17.7820 257° West  Level Estimated
10:22AM 65.9642 -18.0524 256° West  Level Estimated
10:23AM 65.9369 -18.3223 256° West  Level Estimated
10:24AM 65.9090 -18.5915 256° West  Level Estimated
10:25AM 65.8807 -18.8602 256° West  Level Estimated
10:26AM 65.8519 -19.1282 255° West  Level Estimated
10:27AM 65.8226 -19.3957 255° West  Level Estimated
10:28AM 65.7929 -19.6625 255° West  Level Estimated
10:29AM 65.7627 -19.9287 255° West  Level Estimated
10:30AM 65.7320 -20.1943 254° West  Level Estimated
10:31AM 65.7009 -20.4593 254° West  Level Estimated
10:32AM 65.6693 -20.7236 254° West  Level Estimated
10:33AM 65.6373 -20.9873 254° West  Level Estimated
10:34AM 65.6048 -21.2503 253° West  Level Estimated
10:35AM 65.5719 -21.5127 253° West  Level Estimated
10:36AM 65.5385 -21.7744 253° West  Level Estimated
10:37AM 65.5047 -22.0354 253° West  Level Estimated
10:38AM 65.4704 -22.2957 253° West  Level Estimated
10:39AM 65.4357 -22.5554 252° West  Level Estimated
10:40AM 65.4005 -22.8143 252° West  Level Estimated
10:41AM 65.3649 -23.0726 252° West  Level Estimated
10:42AM 65.3288 -23.3302 252° West  Level Estimated
10:43AM 65.2923 -23.5870 251° West  Level Estimated
10:44AM 65.2554 -23.8431 251° West  Level Estimated
10:45AM 65.2180 -24.0986 251° West  Level Estimated
10:46AM 65.1802 -24.3532 251° West  Level Estimated
10:47AM 65.1420 -24.6072 250° West  Level Estimated
10:48AM 65.1033 -24.8604 250° West  Level Estimated
10:49AM 65.0643 -25.1129 250° West  Level Estimated
10:50AM 65.0248 -25.3646 250° West  Level Estimated
10:51AM 64.9848 -25.6156 249° West  Level Estimated
10:52AM 64.9445 -25.8659 249° West  Level Estimated
10:53AM 64.9037 -26.1154 249° West  Level Estimated
10:54AM 64.8625 -26.3641 249° West  Level Estimated
10:55AM 64.8210 -26.6120 249° West  Level Estimated
10:56AM 64.7790 -26.8592 248° West  Level Estimated
10:57AM 64.7365 -27.1056 248° West  Level Estimated
10:58AM 64.6937 -27.3513 248° West  Level Estimated
10:59AM 64.6505 -27.5961 248° West  Level Estimated
11:00AM 64.6068 -27.8402 247° West  Level Estimated
11:01AM 64.5628 -28.0835 247° West  Level Estimated
11:02AM 64.5184 -28.3260 247° West  Level Estimated
11:03AM 64.4736 -28.5678 247° West  Level Estimated
11:04AM 64.4283 -28.8087 247° West  Level Estimated
11:05AM 64.3827 -29.0488 246° West  Level Estimated
11:06AM 64.3367 -29.2881 246° West  Level Estimated
11:07AM 64.2903 -29.5266 246° West  Level Estimated
11:08AM 64.2435 -29.7644 246° West  Level Estimated
11:09AM 64.1963 -30.0013 246° West  Level Estimated
11:10AM 64.1488 -30.2374 245° Southwest  Level Estimated
11:11AM 64.1009 -30.4727 245° Southwest  Level Estimated
11:12AM 64.0526 -30.7071 245° Southwest  Level Estimated
11:13AM 64.0039 -30.9408 245° Southwest  Level Estimated
11:14AM 63.9548 -31.1737 244° Southwest  Level Estimated
11:15AM 63.9054 -31.4057 244° Southwest  Level Estimated
11:16AM 63.8556 -31.6369 244° Southwest  Level Estimated
11:17AM 63.8054 -31.8673 244° Southwest  Level Estimated
11:18AM 63.7549 -32.0969 244° Southwest  Level Estimated
11:19AM 63.7040 -32.3256 243° Southwest  Level Estimated
11:20AM 63.6527 -32.5535 243° Southwest  Level Estimated
11:21AM 63.6011 -32.7806 243° Southwest  Level Estimated
11:22AM 63.5491 -33.0069 243° Southwest  Level Estimated
11:23AM 63.4968 -33.2323 243° Southwest  Level Estimated
11:24AM 63.4441 -33.4570 242° Southwest  Level Estimated
11:25AM 63.3910 -33.6808 242° Southwest  Level Estimated
11:26AM 63.3377 -33.9037 242° Southwest  Level Estimated
11:27AM 63.2839 -34.1258 242° Southwest  Level Estimated
11:28AM 63.2298 -34.3471 242° Southwest  Level Estimated
11:29AM 63.1754 -34.5676 241° Southwest  Level Estimated
11:30AM 63.1207 -34.7873 241° Southwest  Level Estimated
11:31AM 63.0656 -35.0061 241° Southwest  Level Estimated
11:32AM 63.0101 -35.2241 241° Southwest  Level Estimated
11:33AM 62.9543 -35.4412 241° Southwest  Level Estimated
11:34AM 62.8983 -35.6576 240° Southwest  Level Estimated
11:35AM 62.8418 -35.8731 240° Southwest  Level Estimated
11:36AM 62.7851 -36.0877 240° Southwest  Level Estimated
11:37AM 62.7280 -36.3016 240° Southwest  Level Estimated
11:38AM 62.6706 -36.5146 240° Southwest  Level Estimated
11:39AM 62.6128 -36.7268 239° Southwest  Level Estimated
11:40AM 62.5548 -36.9382 239° Southwest  Level Estimated
11:41AM 62.4964 -37.1487 239° Southwest  Level Estimated
11:42AM 62.4377 -37.3584 239° Southwest  Level Estimated
11:43AM 62.3787 -37.5673 239° Southwest  Level Estimated
11:44AM 62.3194 -37.7754 239° Southwest  Level Estimated
11:45AM 62.2598 -37.9827 238° Southwest  Level Estimated
11:46AM 62.1999 -38.1891 238° Southwest  Level Estimated
11:47AM 62.1396 -38.3947 238° Southwest  Level Estimated
11:48AM 62.0791 -38.5995 238° Southwest  Level Estimated
11:49AM 62.0183 -38.8035 238° Southwest  Level Estimated
11:50AM 61.9571 -39.0066 237° Southwest  Level Estimated
11:51AM 61.8957 -39.2090 237° Southwest  Level Estimated
11:52AM 61.8340 -39.4105 237° Southwest  Level Estimated
11:53AM 61.7719 -39.6112 237° Southwest  Level Estimated
11:54AM 61.7096 -39.8111 237° Southwest  Level Estimated
11:55AM 61.6470 -40.0102 237° Southwest  Level Estimated
11:56AM 61.5841 -40.2085 236° Southwest  Level Estimated
11:57AM 61.5209 -40.4060 236° Southwest  Level Estimated
11:58AM 61.4575 -40.6027 236° Southwest  Level Estimated
11:59AM 61.3937 -40.7986 236° Southwest  Level Estimated
12:00PM 61.3297 -40.9936 236° Southwest  Level Estimated
12:01PM 61.2654 -41.1879 236° Southwest  Level Estimated
12:02PM 61.2008 -41.3814 235° Southwest  Level Estimated
12:02PM 62.2360 -49.3560 235° Southwest 475 547 36,000  Level FlightAware
12:02PM 62.1960 -49.4680 233° Southwest 476 548 36,000  Level FlightAware
12:03PM 62.1440 -49.6090 232° Southwest 478 550 36,000  Level FlightAware
12:04PM 62.0970 -49.7390 232° Southwest 478 550 36,000  Level FlightAware
12:04PM 62.0550 -49.8530 232° Southwest 478 550 36,000  Level FlightAware
12:05PM 61.9770 -50.0760 233° Southwest 481 554 36,000  Level FlightAware
12:06PM 61.9380 -50.2390 243° Southwest 482 555 36,000  Level FlightAware
12:06PM 61.9040 -50.3700 241° Southwest 482 555 36,000  Level FlightAware
12:07PM 61.8630 -50.5700 247° West 481 554 36,000  Level FlightAware
12:07PM 61.8300 -50.7010 242° Southwest 482 555 36,000  Level FlightAware
12:08PM 61.7950 -50.8390 242° Southwest 482 555 36,000  Level FlightAware
12:09PM 61.7520 -51.0090 242° Southwest 482 555 36,000  Level FlightAware
12:10PM 61.6840 -51.2870 243° Southwest 485 558 36,000  Level FlightAware
12:10PM 61.6440 -51.4420 242° Southwest 484 557 36,000  Level FlightAware
12:11PM 61.6080 -51.5750 240° Southwest 484 557 36,000  Level FlightAware
12:12PM 61.5660 -51.7360 241° Southwest 484 557 36,000  Level FlightAware
12:13PM 61.5210 -51.9080 241° Southwest 484 557 36,000  Level FlightAware
12:14PM 61.4430 -52.2220 243° Southwest 489 563 36,000  Level FlightAware
12:14PM 61.4070 -52.3550 241° Southwest 489 563 36,000  Level FlightAware
12:15PM 61.3730 -52.4850 241° Southwest 489 563 36,000  Level FlightAware
12:15PM 61.3380 -52.6150 241° Southwest 489 563 36,000  Level FlightAware
12:16PM 61.3060 -52.7340 241° Southwest 489 563 36,000  Level FlightAware
12:17PM 61.2700 -52.8710 241° Southwest 489 563 36,000  Level FlightAware
12:17PM 61.2360 -52.9970 241° Southwest 489 563 36,000  Level FlightAware
12:18PM 61.2020 -53.1260 241° Southwest 489 563 36,000  Level FlightAware
12:19PM 61.1570 -53.2930 241° Southwest 489 563 36,000  Level FlightAware
12:19PM 61.1240 -53.4190 242° Southwest 489 563 36,000  Level FlightAware
12:19PM 61.1120 -53.4610 239° Southwest 489 563 36,000  Level FlightAware
12:20PM 61.0590 -53.6590 241° Southwest 489 563 36,000  Level FlightAware
12:21PM 61.0150 -53.8220 241° Southwest 489 563 36,000  Level FlightAware
12:22PM 60.9710 -53.9880 241° Southwest 489 563 36,000  Level FlightAware
12:23PM 60.9360 -54.1170 241° Southwest 489 563 36,000  Level FlightAware
12:23PM 60.9140 -54.2000 241° Southwest 489 563 36,000  Level FlightAware
12:26PM 60.6964 -54.5719 220° Southwest  Level Estimated
12:27PM 60.6090 -54.7192 220° Southwest  Level Estimated
12:28PM 60.5215 -54.8657 220° Southwest  Level Estimated
12:29PM 60.4339 -55.0115 219° Southwest  Level Estimated
12:29PM 60.4167 -55.8167 219° Southwest 470 541 36,000  Level Gander Center
12:30PM 60.3461 -55.1565 219° Southwest  Level Estimated
12:30PM 60.3333 -56.0333 232° Southwest 470 541 36,000  Level Gander Center
12:31PM 60.2512 -55.3119 219° Southwest  Level Estimated
12:31PM 60.2667 -56.2500 238° Southwest 480 552 36,000  Level Gander Center
12:32PM 60.1561 -55.4665 219° Southwest  Level Estimated
12:32PM 60.1833 -56.4667 232° Southwest 480 552 36,000  Level Gander Center
12:33PM 60.0609 -55.6202 219° Southwest  Level Estimated
12:33PM 60.1167 -56.6667 236° Southwest 470 541 36,000  Level Gander Center
12:34PM 59.9655 -55.7729 219° Southwest  Level Estimated
12:34PM 60.0500 -56.9167 242° Southwest 470 541 36,000  Level Gander Center
12:35PM 59.8714 -55.9225 219° Southwest  Level Estimated
12:35PM 59.9667 -57.1333 233° Southwest 470 541 36,000  Level Gander Center
12:36PM 59.9167 -57.3333 244° Southwest 470 541 36,000  Level Gander Center
12:37PM 59.8333 -57.5333 230° Southwest 460 529 36,000  Level Gander Center
12:38PM 59.7667 -57.7833 242° Southwest 460 529 36,000  Level Gander Center
12:39PM 59.7000 -57.9833 237° Southwest 460 529 36,000  Level Gander Center
12:40PM 59.6333 -58.1833 237° Southwest 460 529 36,000  Level Gander Center
12:41PM 59.5667 -58.3833 237° Southwest 460 529 36,000  Level Gander Center
12:42PM 59.5000 -58.6000 239° Southwest 460 529 36,000  Level Gander Center
12:43PM 59.4167 -58.8333 235° Southwest 460 529 36,000  Level Gander Center
12:44PM 59.3500 -59.0333 237° Southwest 460 529 36,000  Level Gander Center
12:45PM 59.2667 -59.2333 231° Southwest 460 529 36,000  Level Gander Center
12:46PM 59.2000 -59.4333 237° Southwest 460 529 36,000  Level Gander Center
12:47PM 59.1333 -59.6333 237° Southwest 460 529 36,000  Level Gander Center
12:48PM 59.0500 -59.8333 231° Southwest 460 529 36,000  Level Gander Center
12:49PM 58.9833 -60.0500 239° Southwest 460 529 36,000  Level Gander Center
12:50PM 58.9000 -60.2167 226° Southwest 460 529 36,000  Level Gander Center
12:51PM 58.7833 -60.3167 204° Southwest 460 529 36,000  Level Gander Center
12:52PM 58.6667 -60.4167 204° Southwest 450 518 36,000  Level Gander Center
12:53PM 58.5500 -60.5167 204° Southwest 460 529 36,000  Level Gander Center
12:54PM 58.4333 -60.6167 204° Southwest 460 529 36,000  Level Gander Center
12:55PM 58.3000 -60.7500 208° Southwest 450 518 36,000  Level Gander Center
12:56PM 58.1833 -60.8333 201° Southwest 450 518 36,000  Level Gander Center
12:57PM 58.0833 -60.9333 208° Southwest 460 529 36,000  Level Gander Center
12:58PM 57.9667 -61.0333 204° Southwest 460 529 36,000  Level Gander Center
12:59PM 57.8500 -61.1333 205° Southwest 460 529 36,000  Level Gander Center
01:00PM 57.7333 -61.2167 201° Southwest 460 529 36,000  Level Gander Center
01:01PM 57.6167 -61.3167 205° Southwest 460 529 36,000  Level Gander Center
01:02PM 57.5000 -61.4000 201° Southwest 450 518 36,000  Level Gander Center
01:03PM 57.3833 -61.5000 205° Southwest 450 518 36,000  Level Gander Center
01:04PM 57.2667 -61.5833 201° Southwest 480 552 36,000  Level Gander Center
01:05PM 57.1500 -61.7167 212° Southwest 470 541 36,000  Level Gander Center
01:06PM 57.0333 -61.8000 201° Southwest 440 506 36,000  Level Gander Center
01:07PM 56.9167 -61.9000 205° Southwest 460 529 36,000  Level Gander Center
01:08PM 56.8000 -61.9833 201° Southwest 460 529 36,000  Level Gander Center
01:09PM 56.6833 -62.0667 201° Southwest 450 518 36,000  Level Gander Center
01:10PM 56.5667 -62.1667 205° Southwest 440 506 36,000  Level Gander Center
01:11PM 56.4500 -62.2500 202° Southwest 440 506 36,000  Level Gander Center
01:12PM 56.3333 -62.3333 202° Southwest 450 518 36,000  Level Gander Center
01:13PM 56.2333 -62.4167 205° Southwest 450 518 36,000  Level Gander Center
01:15PM 56.0667 -62.5333 201° Southwest 440 506 36,000  Level Gander Center
01:16PM 55.9500 -62.6167 202° Southwest 440 506 36,000  Level Gander Center
01:16PM 55.8833 -62.6833 209° Southwest 450 518 36,000  Level Gander Center
01:17PM 55.7667 -62.7667 202° Southwest 450 518 36,000  Level Gander Center
01:18PM 55.6500 -62.8500 202° Southwest 440 506 36,000  Level Gander Center
01:19PM 55.5333 -62.9333 202° Southwest 440 506 36,000  Level Gander Center
01:20PM 55.4167 -63.0167 202° Southwest 440 506 36,000  Level Gander Center
01:21PM 55.3000 -63.1000 202° Southwest 440 506 36,000  Level Gander Center
01:22PM 55.2000 -63.1500 196° South 440 506 36,000  Level Gander Center
01:23PM 55.0833 -63.2333 202° Southwest 440 506 36,000  Level Gander Center
01:24PM 54.9667 -63.3167 202° Southwest 440 506 36,000  Level Gander Center
01:25PM 54.8667 -63.4000 206° Southwest 440 506 36,000  Level Gander Center
01:26PM 54.7500 -63.4833 202° Southwest 440 506 36,000  Level Gander Center
01:27PM 54.6333 -63.5667 202° Southwest 440 506 36,000  Level Gander Center
01:28PM 54.5167 -63.6500 203° Southwest 450 518 36,000  Level Gander Center
01:29PM 54.4000 -63.7167 198° South 450 518 36,000  Level Gander Center
01:30PM 54.2833 -63.8000 203° Southwest 450 518 36,000  Level Gander Center
01:31PM 54.1667 -63.8833 203° Southwest 450 518 36,000  Level Gander Center
01:32PM 54.0667 -63.9667 206° Southwest 440 506 36,000  Level Gander Center
01:33PM 53.9500 -64.0333 199° South 440 506 36,000  Level Gander Center
01:34PM 53.8333 -64.1167 203° Southwest 440 506 36,000  Level Gander Center
01:35PM 53.7167 -64.2000 203° Southwest 440 506 36,000  Level Gander Center
01:36PM 53.6167 -64.2667 202° Southwest 440 506 36,000  Level Gander Center
01:37PM 53.4833 -64.3500 200° South 440 506 36,000  Level Gander Center
01:38PM 53.3667 -64.4167 199° South 440 506 36,000  Level Gander Center
01:39PM 53.2500 -64.5000 203° Southwest 440 506 36,000  Level Gander Center
01:40PM 53.1500 -64.5500 197° South 430 495 36,000  Level Gander Center
01:41PM 53.0333 -64.6167 199° South 430 495 36,000  Level Gander Center
01:42PM 52.9167 -64.7000 203° Southwest 430 495 36,000  Level Gander Center
01:43PM 52.8167 -64.7667 202° Southwest 440 506 36,000  Level Gander Center
01:44PM 52.6833 -64.8333 197° South 440 506 36,000  Level Gander Center
01:45PM 52.5667 -64.9167 203° Southwest 440 506 36,000  Level Gander Center
01:46PM 52.4667 -64.9833 202° Southwest 440 506 36,000  Level Gander Center
01:47PM 52.3500 -65.0667 204° Southwest 440 506 36,000  Level Gander Center
01:48PM 52.2333 -65.1333 199° South 440 506 36,000  Level Gander Center
01:49PM 52.1333 -65.2000 202° Southwest 440 506 36,000  Level Gander Center
01:50PM 52.0000 -65.2833 201° Southwest 440 506 36,000  Level Gander Center
01:51PM 51.8833 -65.3500 199° South 430 495 36,000  Level Gander Center
01:52PM 51.7833 -65.4000 197° South 440 506 36,000  Level Gander Center
01:53PM 51.6667 -65.4667 200° South 440 506 36,000  Level Gander Center
01:54PM 51.5500 -65.5333 200° South 430 495 36,000  Level Gander Center
01:55PM 51.4500 -65.6000 203° Southwest 440 506 36,000  Level Gander Center
01:56PM 51.3167 -65.6667 197° South 430 495 36,000  Level Gander Center
01:57PM 51.2167 -65.7500 208° Southwest 430 495 36,000  Level Gander Center
01:58PM 51.1000 -65.8167 200° South 440 506 36,000  Level Gander Center
02:00PM 50.8667 -65.9000 193° South 440 506 36,000  Level Gander Center
02:01PM 50.7500 -65.9167 185° South 440 506 36,000  Level Gander Center
02:02PM 50.6333 -65.9167 180° South 430 495 36,000  Level Gander Center
02:03PM 50.5167 -65.9833 200° South 430 495 36,000  Level Gander Center
02:04PM 50.4000 -66.0667 204° Southwest 440 506 36,000  Level Gander Center
02:05PM 50.2833 -66.1500 205° Southwest 440 506 36,000  Level Gander Center
02:06PM 50.1833 -66.2500 213° Southwest 440 506 36,000  Level Gander Center
02:07PM 50.0833 -66.3167 203° Southwest 450 518 36,000  Level Gander Center
02:08PM 49.9333 -66.3833 196° South 450 518 36,000  Level Gander Center
02:09PM 49.8333 -66.4500 203° Southwest 450 518 36,000  Level Gander Center
02:10PM 49.7167 -66.5333 205° Southwest 450 518 36,000  Level Gander Center
02:11PM 49.6000 -66.6000 200° South 450 518 36,000  Level Gander Center
02:12PM 49.4667 -66.6667 198° South 450 518 36,000  Level Gander Center
02:13PM 49.3500 -66.7333 200° South 450 518 36,000  Level Gander Center
02:14PM 49.2500 -66.7833 198° South 450 518 36,000  Level Gander Center
02:15PM 49.1333 -66.8500 201° Southwest 450 518 36,000  Level Gander Center
02:16PM 49.0167 -66.9167 201° Southwest 450 518 36,000  Level Gander Center
02:17PM 48.8833 -66.9833 198° South 450 518 36,000  Level Gander Center
02:18PM 48.7833 -67.0500 204° Southwest 450 518 36,000  Level Gander Center
02:19PM 48.6500 -67.1167 198° South 440 506 36,000  Level Moncton Center
02:20PM 48.5333 -67.1833 201° Southwest 440 506 36,000  Level Moncton Center
02:26PM 47.9340 -67.5000 201° Southwest 452 520 36,000  Level FlightAware
02:27PM 47.8670 -67.5340 199° South 452 520 36,000  Level FlightAware
02:27PM 47.9340 -67.5000 19° North 454 522 36,000  Level FlightAware
02:28PM 47.8680 -67.5340 199° South 454 522 36,000  Level FlightAware
02:28PM 47.8870 -67.5240 19° North 454 522 36,000  Level FlightAware
02:29PM 47.4980 -67.7260 199° South 458 527 36,000  Level FlightAware
02:30PM 47.4370 -67.7580 200° South 458 527 36,000  Level FlightAware
02:30PM 47.3760 -67.7890 199° South 458 527 36,000  Level FlightAware
02:31PM 47.3130 -67.8210 199° South 458 527 36,000  Level FlightAware
02:32PM 47.2510 -67.8520 199° South 458 527 36,000  Level FlightAware
02:32PM 47.1900 -67.8830 199° South 458 527 36,000  Level FlightAware
02:33PM 47.1270 -67.9150 199° South 458 527 36,000  Level FlightAware
02:33PM 47.0690 -67.9440 199° South 458 527 36,000  Level FlightAware
02:34PM 47.0060 -67.9760 199° South 458 527 36,000  Level FlightAware
02:35PM 46.9450 -68.0070 199° South 458 527 36,000  Level FlightAware
02:35PM 46.8830 -68.0380 199° South 458 527 36,000  Level FlightAware
02:36PM 46.8050 -68.0770 199° South 458 527 36,000  Level FlightAware
02:37PM 46.7440 -68.1080 199° South 458 527 36,000  Level FlightAware
02:37PM 46.6810 -68.1400 199° South 458 527 36,000  Level FlightAware
02:38PM 46.4600 -68.2370 197° South 460 529 36,000  Level FlightAware
02:39PM 46.3820 -68.3090 212° Southwest 460 529 36,000  Level FlightAware
02:39PM 46.3100 -68.3720 211° Southwest 454 522 36,000  Level FlightAware
02:40PM 46.2520 -68.4230 211° Southwest 455 524 36,000  Level FlightAware
02:40PM 46.2040 -68.4660 212° Southwest 455 524 36,000  Level FlightAware
02:41PM 46.1300 -68.5310 211° Southwest 462 532 36,000  Level FlightAware
02:41PM 46.1300 -68.5310 211° Southwest 461 531 36,000  Level FlightAware
02:43PM 46.0890 -68.5660 211° Southwest 461 531 36,000  Level FlightAware
02:43PM 45.8450 -68.7810 212° Southwest 464 534 36,000  Level FlightAware
02:44PM 45.7830 -68.8350 211° Southwest 463 533 36,000  Level FlightAware
02:44PM 46.1300 -68.5310 31° Northeast 36,000  Level FlightAware
02:45PM 45.6830 -68.9220 211° Southwest 463 533 36,000  Level FlightAware
02:45PM 45.6260 -68.9710 211° Southwest 463 533 36,000  Level FlightAware
02:46PM 45.5620 -69.0260 211° Southwest 465 535 36,000  Level FlightAware
02:47PM 45.4910 -69.0870 211° Southwest 466 536 36,000  Level FlightAware
02:47PM 45.4300 -69.1390 211° Southwest 466 536 36,000  Level FlightAware
02:48PM 45.3620 -69.1980 211° Southwest 463 533 36,000  Level FlightAware
02:48PM 45.2920 -69.2570 211° Southwest 462 532 36,000  Level FlightAware
02:49PM 45.2320 -69.3090 211° Southwest 460 529 36,000  Level FlightAware
02:50PM 45.1450 -69.3820 211° Southwest 457 526 36,000  Level FlightAware
02:50PM 45.0660 -69.4480 211° Southwest 458 527 36,000  Level FlightAware
02:51PM 45.0090 -69.4970 211° Southwest 460 529 36,000  Level FlightAware
02:51PM 44.9450 -69.5510 211° Southwest 464 534 36,000  Level FlightAware
02:52PM 44.8770 -69.6080 211° Southwest 464 534 36,000  Level FlightAware
02:53PM 44.8060 -69.6670 211° Southwest 462 532 36,000  Level FlightAware
02:53PM 44.7470 -69.7160 211° Southwest 460 529 36,000  Level FlightAware
02:54PM 44.6840 -69.7680 210° Southwest 459 528 36,000  Level FlightAware
02:54PM 44.6220 -69.8200 211° Southwest 459 528 36,000  Level FlightAware
02:55PM 44.5600 -69.8710 210° Southwest 458 527 36,000  Level FlightAware
02:55PM 44.5050 -69.9160 210° Southwest 458 527 36,000  Level FlightAware
02:56PM 44.4200 -69.9860 210° Southwest 460 529 36,000  Level FlightAware
02:57PM 44.3590 -70.0360 210° Southwest 461 531 36,000  Level FlightAware
02:57PM 44.3030 -70.0820 210° Southwest 461 531 36,000  Level FlightAware
02:58PM 44.2390 -70.1340 210° Southwest 459 528 36,000  Level FlightAware
02:59PM 44.1730 -70.1880 210° Southwest 459 528 36,000  Level FlightAware
02:59PM 44.1030 -70.2450 210° Southwest 465 535 36,000  Level FlightAware
03:00PM 44.0380 -70.2970 210° Southwest 460 529 36,000  Level FlightAware
03:00PM 43.9770 -70.3460 210° Southwest 459 528 36,000  Level FlightAware
03:01PM 43.9110 -70.4000 211° Southwest 455 524 36,000  Level FlightAware
03:01PM 43.8490 -70.4500 210° Southwest 459 528 36,000  Level FlightAware
03:02PM 43.7830 -70.5020 210° Southwest 458 527 36,000  Level FlightAware
03:03PM 43.7290 -70.5460 210° Southwest 457 526 36,000  Level FlightAware
03:03PM 43.6550 -70.6040 210° Southwest 458 527 36,000  Level FlightAware
03:04PM 43.5960 -70.6520 211° Southwest 459 528 36,000  Level FlightAware
03:04PM 43.5280 -70.7060 210° Southwest 459 528 36,000  Level FlightAware
03:05PM 43.4680 -70.7530 210° Southwest 459 528 36,000  Level FlightAware
03:06PM 43.4010 -70.8060 210° Southwest 456 525 36,000  Level FlightAware
03:06PM 43.3320 -70.8600 210° Southwest 453 521 36,000  Level FlightAware
03:07PM 43.2670 -70.9110 210° Southwest 451 519 36,000  Level FlightAware
03:07PM 43.2090 -70.9560 209° Southwest 450 518 36,000  Level FlightAware
03:08PM 43.1450 -71.0070 210° Southwest 450 518 36,000  Level FlightAware
03:08PM 43.0790 -71.0580 209° Southwest 449 517 36,000  Level FlightAware
03:09PM 43.0200 -71.1040 210° Southwest 446 513 36,000  Level FlightAware
03:10PM 42.9490 -71.1590 210° Southwest 445 512 36,000  Level FlightAware
03:10PM 42.8900 -71.2050 210° Southwest 447 514 36,000  Level FlightAware
03:11PM 42.8620 -71.2270 210° Southwest 448 516 36,000  Level FlightAware
03:12PM 42.7660 -71.3010 210° Southwest 452 520 36,000  Level FlightAware
03:12PM 42.6800 -71.3670 209° Southwest 452 520 36,000  Level FlightAware
03:13PM 42.6180 -71.4150 210° Southwest 450 518 36,000  Level FlightAware
03:13PM 42.5440 -71.4710 209° Southwest 450 518 36,000  Level FlightAware
03:14PM 42.4900 -71.5120 209° Southwest 449 517 36,000  Level FlightAware
03:15PM 42.4270 -71.5600 209° Southwest 448 516 36,000  Level FlightAware
03:15PM 42.3600 -71.6110 209° Southwest 449 517 36,000  Level FlightAware
03:16PM 42.2960 -71.6620 211° Southwest 445 512 36,000  Level FlightAware
03:16PM 42.2420 -71.7150 216° Southwest 445 512 36,000  Level FlightAware
03:17PM 42.1830 -71.7720 216° Southwest 447 514 36,000  Level FlightAware
03:17PM 42.1190 -71.8340 216° Southwest 449 517 36,000  Level FlightAware
03:18PM 42.0590 -71.8920 216° Southwest 449 517 36,000  Level FlightAware
03:19PM 42.0030 -71.9460 216° Southwest 450 518 36,000  Level FlightAware
03:19PM 41.9460 -72.0000 215° Southwest 450 518 36,000  Level FlightAware
03:19PM 41.9210 -72.0240 216° Southwest 450 518 36,000  Level FlightAware
03:21PM 41.8050 -72.1350 216° Southwest 441 507 36,000  Level FlightAware
03:21PM 41.7310 -72.2050 215° Southwest 444 511 36,000  Level FlightAware
03:22PM 41.6650 -72.2670 215° Southwest 444 511 36,000  Level FlightAware
03:23PM 41.6030 -72.3270 216° Southwest 444 511 36,000  Level FlightAware
03:23PM 41.5790 -72.3490 214° Southwest 445 512 36,000  Level FlightAware
03:24PM 41.4470 -72.4730 215° Southwest 448 516 36,000  Level FlightAware
03:25PM 41.3650 -72.5500 215° Southwest 452 520 36,000  Level FlightAware
03:25PM 41.3070 -72.6040 215° Southwest 453 521 36,000  Level FlightAware
03:26PM 41.2410 -72.6650 215° Southwest 453 521 36,000  Level FlightAware
03:27PM 41.1810 -72.7210 215° Southwest 453 521 36,000  Level FlightAware
03:27PM 41.1200 -72.7780 215° Southwest 455 524 36,000  Level FlightAware
03:28PM 41.0550 -72.8380 215° Southwest 457 526 36,000  Level FlightAware
03:29PM 40.9990 -72.8900 215° Southwest 457 526 36,000  Level FlightAware
03:29PM 40.9280 -72.9550 215° Southwest 458 527 36,000  Level FlightAware
03:29PM 40.8992 -72.9817 215° Southwest 458 527 36,000  Level FlightAware ADS-B
03:30PM 40.8222 -73.0524 215° Southwest 457 526 36,000  Level FlightAware ADS-B
03:31PM 40.7709 -73.0994 215° Southwest 458 527 36,000  Level FlightAware ADS-B
03:31PM 40.7166 -73.1490 215° Southwest 457 526 36,000  Level FlightAware ADS-B
03:32PM 40.6639 -73.1970 215° Southwest 457 526 36,000  Level FlightAware ADS-B
03:32PM 40.6093 -73.2465 215° Southwest 459 528 36,000  Level FlightAware ADS-B
03:33PM 40.5555 -73.2953 215° Southwest 461 531 36,000  Level FlightAware ADS-B
03:33PM 40.4920 -73.3531 215° Southwest 461 531 36,000  Level FlightAware ADS-B
03:34PM 40.4170 -73.4210 215° Southwest 458 527 36,000  Level FlightAware
03:34PM 40.3740 -73.4597 214° Southwest 458 527 36,000  Level FlightAware ADS-B
03:35PM 40.3190 -73.5091 214° Southwest 461 531 36,000  Level FlightAware ADS-B
03:36PM 40.2611 -73.5610 214° Southwest 462 532 36,000  Level FlightAware ADS-B
03:36PM 40.1929 -73.6222 214° Southwest 465 535 36,000  Level FlightAware ADS-B
03:37PM 40.1339 -73.6750 214° Southwest 465 535 36,000  Level FlightAware ADS-B
03:37PM 40.0820 -73.7213 214° Southwest 468 539 36,000  Level FlightAware ADS-B
03:38PM 40.0223 -73.7745 214° Southwest 468 539 36,000  Level FlightAware ADS-B
03:38PM 39.9548 -73.8345 214° Southwest 468 539 36,000  Level FlightAware ADS-B
03:39PM 39.9005 -73.8828 214° Southwest 468 539 36,000  Level FlightAware ADS-B
03:39PM 39.8450 -73.9318 214° Southwest 468 539 36,000  Level FlightAware ADS-B
03:40PM 39.7911 -73.9793 214° Southwest 469 540 36,000  Level FlightAware ADS-B
03:40PM 39.7337 -74.0298 214° Southwest 469 540 36,000  Level FlightAware ADS-B
03:41PM 39.6689 -74.0869 214° Southwest 467 537 36,000  Level FlightAware ADS-B
03:42PM 39.6144 -74.1347 214° Southwest 467 537 36,000  Level FlightAware ADS-B
03:42PM 39.5407 -74.1993 214° Southwest 468 539 36,000  Level FlightAware ADS-B
03:43PM 39.4864 -74.2467 214° Southwest 469 540 36,000  Level FlightAware ADS-B
03:43PM 39.4317 -74.2944 214° Southwest 467 537 36,000  Level FlightAware ADS-B
03:44PM 39.3710 -74.3471 214° Southwest 466 536 36,000  Level FlightAware ADS-B
03:44PM 39.3168 -74.3942 214° Southwest 467 537 36,000  Level FlightAware ADS-B
03:45PM 39.2580 -74.4452 214° Southwest 467 537 36,000  Level FlightAware ADS-B
03:45PM 39.1977 -74.4974 214° Southwest 469 540 36,000  Level FlightAware ADS-B
03:46PM 39.1379 -74.5490 214° Southwest 471 542 36,000  Level FlightAware ADS-B
03:46PM 39.0827 -74.5966 214° Southwest 471 542 36,000  Level FlightAware ADS-B
03:47PM 39.0260 -74.6454 214° Southwest 471 542 36,000  Level FlightAware ADS-B
03:48PM 38.9709 -74.6927 214° Southwest 471 542 36,000  Level FlightAware ADS-B
03:48PM 38.9163 -74.7394 214° Southwest 472 543 36,000  Level FlightAware ADS-B
03:49PM 38.8432 -74.8018 214° Southwest 475 547 36,000  Level FlightAware ADS-B
03:49PM 38.7873 -74.8494 214° Southwest 476 548 36,000  Level FlightAware ADS-B
03:50PM 38.7306 -74.8976 214° Southwest 477 549 36,000  Level FlightAware ADS-B
03:50PM 38.6646 -74.9537 214° Southwest 475 547 36,000  Level FlightAware ADS-B
03:51PM 38.6072 -75.0023 213° Southwest 475 547 36,000  Level FlightAware ADS-B
03:51PM 38.5507 -75.0501 213° Southwest 473 544 36,000  Level FlightAware ADS-B
03:52PM 38.4719 -75.1165 213° Southwest 473 544 36,000  Level FlightAware ADS-B
03:52PM 38.4474 -75.1349 210° Southwest 482 555 36,000  Level FlightAware ADS-B
03:53PM 38.3852 -75.1777 208° Southwest 486 559 36,000  Level FlightAware ADS-B
03:54PM 38.2900 -75.2420 208° Southwest 484 557 36,000  Level FlightAware
03:54PM 38.2110 -75.3000 210° Southwest 478 550 36,000  Level FlightAware
03:55PM 38.1731 -75.3262 209° Southwest 477 549 36,000  Level FlightAware ADS-B
03:55PM 38.1112 -75.3700 209° Southwest 476 548 36,000  Level FlightAware ADS-B
03:56PM 38.0454 -75.4162 209° Southwest 476 548 36,000  Level FlightAware ADS-B
03:56PM 38.0020 -75.4460 208° Southwest 475 547 36,000  Level FlightAware
03:57PM 37.9206 -75.5037 209° Southwest 476 548 36,000  Level FlightAware ADS-B
03:57PM 37.8607 -75.5457 209° Southwest 478 550 36,000  Level FlightAware ADS-B
03:58PM 37.7962 -75.5907 209° Southwest 478 550 36,000  Level FlightAware ADS-B
03:58PM 37.7266 -75.6392 209° Southwest 478 550 36,000  Level FlightAware ADS-B
03:59PM 37.6678 -75.6802 209° Southwest 476 548 36,000  Level FlightAware ADS-B
04:02PM 37.3266 -75.9161 209° Southwest 471 542 36,000  Level FlightAware ADS-B
04:02PM 37.2693 -75.9554 209° Southwest 468 539 36,000  Level FlightAware ADS-B
04:03PM 37.2125 -75.9944 209° Southwest 465 535 36,000  Level FlightAware ADS-B
04:03PM 37.1524 -76.0355 209° Southwest 465 535 36,000  Level FlightAware ADS-B
04:04PM 37.0634 -76.0962 209° Southwest 467 537 36,000  Level FlightAware ADS-B
04:05PM 37.0051 -76.1360 209° Southwest 469 540 36,000  Level FlightAware ADS-B
04:05PM 36.9331 -76.1850 209° Southwest 470 541 36,000  Level FlightAware ADS-B
04:06PM 36.8670 -76.2298 208° Southwest 471 542 36,000  Level FlightAware ADS-B
04:07PM 36.8067 -76.2707 209° Southwest 470 541 36,000  Level FlightAware ADS-B
04:08PM 36.6940 -76.3470 209° Southwest 468 539 36,000  Level FlightAware
04:08PM 36.6360 -76.3850 208° Southwest 468 539 36,000  Level FlightAware
04:09PM 36.5780 -76.4240 208° Southwest 468 539 36,000  Level FlightAware
04:09PM 36.4760 -76.4930 209° Southwest 467 537 36,000  Level FlightAware
04:10PM 36.3980 -76.5450 208° Southwest 470 541 36,000  Level FlightAware
04:11PM 36.3580 -76.5720 209° Southwest 470 541 36,000  Level FlightAware
04:11PM 36.2940 -76.6140 208° Southwest 470 541 36,000  Level FlightAware
04:12PM 36.2300 -76.6560 208° Southwest 470 541 36,000  Level FlightAware
04:12PM 36.1700 -76.6960 208° Southwest 470 541 36,000  Level FlightAware
04:13PM 36.1110 -76.7350 208° Southwest 470 541 36,000  Level FlightAware
04:14PM 36.0510 -76.7740 208° Southwest 470 541 36,000  Level FlightAware
04:14PM 35.9920 -76.8130 208° Southwest 470 541 36,000  Level FlightAware
04:15PM 35.9330 -76.8520 208° Southwest 470 541 36,000  Level FlightAware
04:15PM 35.8780 -76.8880 208° Southwest 470 541 36,000  Level FlightAware
04:16PM 35.8190 -76.9270 208° Southwest 470 541 36,000  Level FlightAware
04:17PM 35.7600 -76.9650 208° Southwest 470 541 36,000  Level FlightAware
04:17PM 35.6820 -77.0160 208° Southwest 470 541 36,000  Level FlightAware
04:18PM 35.6230 -77.0550 208° Southwest 470 541 36,000  Level FlightAware
04:19PM 35.5640 -77.0930 208° Southwest 470 541 36,000  Level FlightAware
04:19PM 35.5090 -77.1290 208° Southwest 470 541 36,000  Level FlightAware
04:20PM 35.4210 -77.1870 208° Southwest 470 541 36,000  Level FlightAware
04:21PM 35.2192 -77.3208 208° Southwest 466 536 36,000  Level Washington Center
04:22PM 35.1056 -77.3922 207° Southwest 466 536 36,000  Level Washington Center
04:23PM 34.9917 -77.4656 208° Southwest 466 536 36,000  Level Washington Center
04:24PM 34.8758 -77.5389 207° Southwest 466 536 36,000  Level Washington Center
04:25PM 34.7514 -77.6269 210° Southwest 466 536 36,000  Level Washington Center
04:30PM 34.0440 -77.9640 210° Southwest 486 559 36,000  Level FlightAware
04:31PM 33.9720 -77.9850 194° South 486 559 36,000  Level FlightAware
04:32PM 33.8850 -78.0090 193° South 486 559 36,000  Level FlightAware
04:32PM 33.8050 -78.0330 194° South 484 557 36,000  Level FlightAware
04:33PM 33.7340 -78.0530 193° South 484 557 36,000  Level FlightAware
04:33PM 33.6530 -78.0760 193° South 484 557 36,000  Level FlightAware
04:34PM 33.6510 -78.0770 203° Southwest 485 558 36,000  Level FlightAware
04:35PM 33.4960 -78.1210 193° South 485 558 36,000  Level FlightAware
04:35PM 33.4000 -78.1490 194° South 488 562 36,000  Level FlightAware
04:36PM 33.3370 -78.1670 193° South 488 562 36,000  Level FlightAware
04:36PM 33.2460 -78.1930 193° South 488 562 36,000  Level FlightAware
04:37PM 33.1730 -78.2140 194° South 487 560 36,000  Level FlightAware
04:38PM 33.1040 -78.2330 193° South 487 560 36,000  Level FlightAware
04:38PM 33.0110 -78.2590 193° South 484 557 36,000  Level FlightAware
04:39PM 32.9330 -78.2810 193° South 485 558 36,000  Level FlightAware
04:39PM 32.8520 -78.3040 193° South 486 559 36,000  Level FlightAware
04:40PM 32.8030 -78.3180 194° South 485 558 36,000  Level FlightAware
04:40PM 32.7000 -78.3470 193° South 485 558 36,000  Level FlightAware
04:41PM 32.6120 -78.3720 193° South 485 558 36,000  Level FlightAware
04:42PM 32.5380 -78.3920 193° South 486 559 36,000  Level FlightAware
04:43PM 32.3920 -78.4330 193° South 486 559 36,000  Level FlightAware
04:43PM 32.3280 -78.4520 194° South 485 558 36,000  Level FlightAware
04:44PM 32.2300 -78.4810 194° South 484 557 36,000  Level FlightAware
04:45PM 32.1850 -78.4940 194° South 484 557 36,000  Level FlightAware
04:45PM 32.0970 -78.5200 194° South 484 557 36,000  Level FlightAware
04:46PM 32.0300 -78.5400 194° South 484 557 36,000  Level FlightAware
04:47PM 31.9620 -78.5600 194° South 484 557 36,000  Level FlightAware
04:47PM 31.8930 -78.5800 194° South 484 557 36,000  Level FlightAware
04:48PM 31.8270 -78.5990 194° South 484 557 36,000  Level FlightAware
04:48PM 31.7590 -78.6190 194° South 484 557 36,000  Level FlightAware
04:49PM 31.6700 -78.6450 194° South 484 557 36,000  Level FlightAware
04:50PM 31.4617 -78.6744 194° South 472 543 36,000  Level Jacksonville Center
04:51PM 31.3261 -78.6733 180° South 484 557 36,000  Level Jacksonville Center
04:52PM 31.1881 -78.6697 179° South 484 557 36,000  Level Jacksonville Center
04:53PM 31.0564 -78.6611 177° South 489 563 36,000  Level Jacksonville Center
04:54PM 30.9164 -78.6578 179° South 489 563 36,000 120 Level Jacksonville Center
04:55PM 30.7847 -78.6539 179° South 489 563 36,300 480 Climbing Jacksonville Center
04:56PM 30.6469 -78.6503 179° South 489 563 37,000 660 Climbing Jacksonville Center
04:57PM 30.5131 -78.6467 179° South 494 568 37,700 540 Climbing Jacksonville Center
04:58PM 30.4381 -78.6358 173° South 496 571 37,900 180 Climbing Miami Center
04:59PM 30.3111 -78.6289 177° South 485 558 38,000  Climbing Miami Center
05:00PM 30.1633 -78.6119 174° South 499 574 38,000  Level Miami Center
05:01PM 30.0197 -78.5953 174° South 499 574 38,000  Level Miami Center
05:02PM 29.8803 -78.5764 173° South 494 568 38,000  Level Miami Center
05:03PM 29.7469 -78.5647 176° South 502 578 38,000  Level Miami Center
05:04PM 29.6114 -78.5650 180° South 494 568 38,000  Level Miami Center
05:05PM 29.4694 -78.5628 179° South 494 568 38,000  Level Miami Center
05:06PM 29.3297 -78.5628 180° South 500 575 38,000  Level Miami Center
05:07PM 29.1942 -78.5656 181° South 494 568 38,000  Level Miami Center
05:08PM 29.0542 -78.5658 180° South 499 574 38,000  Level Miami Center
05:13PM 28.3750 -78.7680 180° South 38,000  Level FlightAware
05:13PM 28.3180 -78.7990 206° Southwest 479 551 38,000  Level FlightAware
05:14PM 28.2560 -78.8310 204° Southwest 479 551 38,000  Level FlightAware
05:15PM 28.1950 -78.8640 205° Southwest 479 551 38,000  Level FlightAware
05:16PM 28.0530 -78.9430 206° Southwest 479 551 38,000  Level FlightAware
05:16PM 27.9880 -78.9770 205° Southwest 477 549 38,000  Level FlightAware
05:17PM 27.8870 -79.0320 206° Southwest 476 548 38,000  Level FlightAware
05:18PM 27.8050 -79.0760 205° Southwest 478 550 38,000  Level FlightAware
05:18PM 27.7380 -79.1110 205° Southwest 481 554 38,000  Level FlightAware
05:19PM 27.6640 -79.1510 206° Southwest 479 551 38,000  Level FlightAware
05:19PM 27.5930 -79.1890 205° Southwest 481 554 38,000  Level FlightAware
05:19PM 27.5850 -79.1940 209° Southwest 481 554 38,000  Level FlightAware
05:20PM 27.4830 -79.2480 205° Southwest 490 564 38,000  Level FlightAware
05:21PM 27.3810 -79.3020 205° Southwest 484 557 38,000  Level FlightAware
05:22PM 27.3140 -79.3380 206° Southwest 486 559 38,000  Level FlightAware
05:22PM 27.2330 -79.3810 205° Southwest 484 557 38,000  Level FlightAware
05:22PM 27.2140 -79.3910 205° Southwest 484 557 38,000  Level FlightAware
05:23PM 27.0930 -79.4550 205° Southwest 486 559 38,000  Level FlightAware
05:24PM 27.0180 -79.4940 205° Southwest 485 558 38,000  Level FlightAware
05:25PM 26.9540 -79.5280 205° Southwest 486 559 38,000  Level FlightAware
05:25PM 26.8630 -79.5760 205° Southwest 485 558 38,000  Level FlightAware
05:26PM 26.8050 -79.6070 206° Southwest 487 560 38,000  Level FlightAware
05:26PM 26.7300 -79.6420 203° Southwest 492 566 38,000  Level FlightAware
05:27PM 26.6580 -79.6610 193° South 496 571 38,000  Level FlightAware
05:27PM 26.5830 -79.6760 190° South 499 574 38,000  Level FlightAware
05:28PM 26.4960 -79.6870 186° South 499 574 38,000  Level FlightAware
05:29PM 26.4210 -79.6930 184° South 498 573 38,000  Level FlightAware
05:29PM 26.3300 -79.7000 184° South 500 575 38,000  Level FlightAware
05:30PM 26.2620 -79.7050 184° South 499 574 38,000  Level FlightAware
05:30PM 26.1810 -79.7110 184° South 499 574 38,000  Level FlightAware
05:31PM 26.0990 -79.7180 184° South 499 574 38,000  Level FlightAware
05:32PM 26.0200 -79.7250 185° South 498 573 38,000  Level FlightAware
05:32PM 25.9380 -79.7320 184° South 497 572 38,000  Level FlightAware
05:33PM 25.8580 -79.7390 185° South 487 560 38,000  Level FlightAware
05:33PM 25.7770 -79.7470 185° South 486 559 38,000  Level FlightAware
05:34PM 25.7120 -79.7610 191° South 492 566 38,000  Level FlightAware
05:34PM 25.6810 -79.7790 208° Southwest 491 565 38,000  Level FlightAware
05:34PM 25.6470 -79.8120 221° Southwest 483 556 38,000  Level FlightAware
05:35PM 25.6050 -79.8840 237° Southwest 487 560 38,000  Level FlightAware
05:36PM 25.5680 -79.9630 243° Southwest 485 558 38,000  Level FlightAware
05:36PM 25.5340 -80.0400 244° Southwest 485 558 38,000  Level FlightAware
05:37PM 25.5010 -80.1200 245° Southwest 487 560 38,000  Level FlightAware
05:37PM 25.4690 -80.2010 246° West 488 562 38,000  Level FlightAware
05:38PM 25.4390 -80.2800 247° West 488 562 38,000  Level FlightAware
05:38PM 25.4060 -80.3610 246° West 487 560 38,000  Level FlightAware
05:39PM 25.3700 -80.4380 243° Southwest 486 559 38,000  Level FlightAware
05:39PM 25.3380 -80.4880 235° Southwest 492 566 38,000  Level FlightAware
05:40PM 25.2710 -80.5910 234° Southwest 485 558 38,000  Level FlightAware
05:41PM 25.2260 -80.6610 235° Southwest 485 558 38,000  Level FlightAware
05:41PM 25.1850 -80.7240 234° Southwest 485 558 38,000  Level FlightAware
05:42PM 25.1400 -80.7950 235° Southwest 485 558 38,000 -600 Level FlightAware
05:43PM 25.0930 -80.8660 234° Southwest 493 567 37,300 -1,200 Descending FlightAware
05:43PM 25.0460 -80.9380 234° Southwest 496 571 36,700 -960 Descending FlightAware
05:44PM 24.9940 -81.0180 234° Southwest 499 574 36,100 -960 Descending FlightAware
05:44PM 24.9510 -81.0840 234° Southwest 503 579 35,600 -1,020 Descending FlightAware
05:45PM 24.9050 -81.1540 234° Southwest 503 579 35,000 -1,080 Descending FlightAware
05:45PM 24.8560 -81.2280 234° Southwest 497 572 34,400 -1,080 Descending FlightAware
05:46PM 24.8100 -81.2990 234° Southwest 484 557 33,800 -1,200 Descending FlightAware
05:47PM 24.7670 -81.3650 234° Southwest 484 557 33,000 -1,440 Descending FlightAware
05:47PM 24.7180 -81.4390 234° Southwest 479 551 32,100 -1,560 Descending FlightAware
05:48PM 24.6720 -81.5090 234° Southwest 475 547 31,200 -1,680 Descending FlightAware
05:48PM 24.6270 -81.5770 234° Southwest 471 542 30,200 -1,500 Descending FlightAware
05:49PM 24.5800 -81.6410 231° Southwest 457 526 29,500 -1,320 Descending FlightAware
05:50PM 24.5250 -81.6900 219° Southwest 459 528 28,700 -1,560 Descending FlightAware
05:50PM 24.4670 -81.7440 220° Southwest 452 520 27,700 -1,320 Descending FlightAware
05:51PM 24.4020 -81.7970 217° Southwest 440 506 27,100 -1,260 Descending FlightAware
05:51PM 24.3530 -81.8360 216° Southwest 435 501 26,300 -1,380 Descending FlightAware
05:52PM 24.2880 -81.8860 215° Southwest 420 483 25,500 -1,260 Descending FlightAware
05:52PM 24.2320 -81.9330 217° Southwest 409 471 24,800 -1,800 Descending FlightAware
05:53PM 24.1760 -81.9700 211° Southwest 415 478 23,400 -2,400 Descending FlightAware
05:54PM 24.1290 -82.0000 210° Southwest 425 489 22,200 -2,400 Descending FlightAware
05:54PM 24.0410 -82.0570 211° Southwest 416 479 20,200 -2,280 Descending FlightAware
05:55PM 23.9800 -82.0960 210° Southwest 412 474 19,000 -1,200 Descending FlightAware
05:56PM 23.9150 -82.1370 210° Southwest 410 472 18,600 -1,200 Descending FlightAware
05:57PM 23.8400 -82.1850 210° Southwest 410 472 17,200 -1,020 Descending FlightAware
05:57PM 23.7880 -82.2170 209° Southwest 410 472 17,200  Level FlightAware
05:58PM 23.7360 -82.2500 210° Southwest 410 472 17,200  Level FlightAware
05:58PM 23.6900 -82.2790 210° Southwest 410 472 17,200  Level FlightAware
05:59PM 23.6460 -82.3070 210° Southwest 410 472 17,200  Level FlightAware
05:59PM 23.5970 -82.3380 210° Southwest 410 472 17,200  Level FlightAware
06:02PM 23.3359 -82.3686 175° South  Level Estimated
06:03PM 23.2106 -82.3833 180° South  Level Estimated
06:04PM 23.0853 -82.3979 170° South  Level Estimated
06:05PM 22.9891 -82.4091 180° South  Level Estimated
06:06PM 22.9891 -82.4091 180° South  Level Estimated
06:07PM 22.9891 -82.4091 180° South  Level Estimated
06:08PM 22.9891 -82.4091 180° South  Level Estimated
06:09PM 22.9891 -82.4091 180° South  Level Estimated
06:10PM 22.9891 -82.4091 180° South  Level Estimated
06:11PM 22.9891 -82.4091 180° South  Level Estimated
06:12PM 22.9891 -82.4091 180° South  Level Estimated
06:13PM 22.9891 -82.4091 180° South  Level Estimated
06:14PM 22.9891 -82.4091 180° South  Level Estimated
06:15PM 22.9891 -82.4091 180° South  Level Estimated
06:16PM 22.9891 -82.4091 180° South  Level Estimated
06:17PM 22.9891 -82.4091 180° South  Level Estimated
06:18PM 22.9891 -82.4091 180° South  Level Estimated
06:19PM 22.9891 -82.4091 180° South  Level Estimated
06:20PM 22.9891 -82.4091 180° South  Level Estimated
06:21PM 22.9891 -82.4091 180° South  Level Estimated
06:22PM 22.9891 -82.4091 180° South  Level Estimated
06:23PM 22.9891 -82.4091 180° South  Level Estimated
06:24PM 22.9891 -82.4091 180° South  Level Estimated
06:25PM 22.9891 -82.4091 180° South  Level Estimated
06:26PM 22.9891 -82.4091 180° South  Level Estimated